Time;durP1;ratioP1;P1;durP2;ratioP2;P2;SDS_P1;SDS_P2;PMS_P1;PMS_P2;Temp;Humidity;BMP_temperature;BMP_pressure;BME280_temperature;BME280_humidity;BME280_pressure;Samples;Min_cycle;Max_cycle;Signal;HPM_P1;HPM_P2
2021/07/17 00:00:37;;;;;;;5.30;3.72;;;20.00;79.70;;;;;;2255392;55;20998;-74
2021/07/17 00:03:05;;;;;;;5.07;3.42;;;20.00;79.70;;;;;;2263748;55;22120;-75
2021/07/17 00:05:31;;;;;;;6.05;3.70;;;20.00;79.70;;;;;;2250113;55;21034;-75
2021/07/17 00:07:58;;;;;;;5.20;3.10;;;20.00;79.70;;;;;;2255602;55;21598;-75
2021/07/17 00:10:39;;;;;;;5.05;3.50;;;20.00;79.60;;;;;;2226856;55;20986;-75
2021/07/17 00:13:06;;;;;;;8.27;3.60;;;20.00;79.50;;;;;;2468311;55;20993;-75
2021/07/17 00:15:32;;;;;;;5.28;3.45;;;20.00;79.60;;;;;;2240910;55;21603;-74
2021/07/17 00:17:58;;;;;;;6.07;3.50;;;20.00;79.60;;;;;;2278670;55;20993;-74
2021/07/17 00:20:48;;;;;;;6.18;3.65;;;20.00;79.60;;;;;;2297815;56;21590;-75
2021/07/17 00:23:16;;;;;;;5.35;3.28;;;20.00;79.30;;;;;;2240893;55;21716;-75
2021/07/17 00:25:47;;;;;;;4.43;2.92;;;20.00;79.60;;;;;;2285835;56;20958;-74
2021/07/17 00:28:14;;;;;;;5.90;3.20;;;19.90;79.50;;;;;;2456059;55;21002;-76
2021/07/17 00:30:41;;;;;;;4.47;3.00;;;19.90;79.50;;;;;;2236656;56;20954;-77
2021/07/17 00:33:08;;;;;;;5.45;3.08;;;19.90;79.50;;;;;;2249964;55;20990;-74
2021/07/17 00:35:34;;;;;;;6.12;3.33;;;19.90;79.50;;;;;;2358043;55;20955;-73
2021/07/17 00:38:01;;;;;;;6.12;3.20;;;20.00;79.70;;;;;;2309535;55;21387;-74
2021/07/17 00:40:28;;;;;;;5.80;3.60;;;19.90;79.60;;;;;;2429348;56;21121;-76
2021/07/17 00:42:55;;;;;;;6.32;3.22;;;19.90;79.60;;;;;;2241435;56;20958;-77
2021/07/17 00:45:21;;;;;;;5.47;3.83;;;20.00;79.70;;;;;;2233939;56;21023;-75
2021/07/17 00:47:50;;;;;;;6.80;3.70;;;19.90;79.70;;;;;;2219154;56;21726;-76
2021/07/17 00:50:17;;;;;;;10.35;4.47;;;19.90;79.90;;;;;;2436231;55;21014;-74
2021/07/17 00:52:44;;;;;;;5.80;4.15;;;19.90;80.10;;;;;;2366302;55;21025;-75
2021/07/17 00:55:11;;;;;;;6.93;4.57;;;20.00;80.30;;;;;;2242197;56;21159;-76
2021/07/17 00:57:39;;;;;;;6.85;4.12;;;19.90;80.40;;;;;;2232344;55;21545;-75
2021/07/17 01:00:10;;;;;;;7.18;4.60;;;19.90;80.50;;;;;;2408574;55;21023;-77
2021/07/17 01:02:38;;;;;;;9.18;5.43;;;20.00;80.60;;;;;;2236125;56;20960;-75
2021/07/17 01:05:06;;;;;;;8.85;5.82;;;20.00;80.70;;;;;;2454234;55;20978;-75
2021/07/17 01:07:33;;;;;;;9.65;5.40;;;20.00;80.80;;;;;;2239780;56;20954;-75
2021/07/17 01:09:59;;;;;;;9.13;6.22;;;20.00;80.90;;;;;;2237479;56;20978;-77
2021/07/17 01:12:26;;;;;;;9.38;5.72;;;20.10;81.10;;;;;;2246190;56;20958;-75
2021/07/17 01:14:52;;;;;;;9.80;6.28;;;20.10;81.20;;;;;;2273382;55;20971;-75
2021/07/17 01:17:19;;;;;;;12.07;6.75;;;20.10;81.30;;;;;;2290065;55;21847;-75
2021/07/17 01:19:46;;;;;;;10.60;6.90;;;20.10;81.30;;;;;;2241497;55;20986;-75
2021/07/17 01:22:13;;;;;;;14.57;8.80;;;20.20;81.40;;;;;;2240779;56;20918;-75
2021/07/17 01:24:39;;;;;;;13.02;8.25;;;20.20;81.40;;;;;;2382294;55;21102;-75
2021/07/17 01:27:06;;;;;;;12.15;8.02;;;20.20;81.40;;;;;;2235721;55;21126;-75
2021/07/17 01:29:33;;;;;;;15.23;8.30;;;20.20;81.30;;;;;;2234901;56;21539;-75
2021/07/17 01:31:59;;;;;;;12.55;8.30;;;20.30;81.30;;;;;;2277051;55;21010;-76
2021/07/17 01:34:26;;;;;;;12.68;8.32;;;20.30;81.20;;;;;;2236867;56;21002;-75
2021/07/17 01:36:53;;;;;;;11.55;7.43;;;20.30;81.10;;;;;;2243413;56;21042;-74
2021/07/17 01:39:19;;;;;;;12.05;8.18;;;20.30;81.00;;;;;;2242598;55;21078;-75
2021/07/17 01:41:47;;;;;;;12.20;8.05;;;20.40;81.00;;;;;;2233235;56;20941;-74
2021/07/17 01:44:13;;;;;;;12.77;8.13;;;20.40;80.90;;;;;;2241388;56;21039;-75
2021/07/17 01:46:43;;;;;;;11.18;7.47;;;20.40;80.80;;;;;;2239973;56;21034;-77
2021/07/17 01:49:12;;;;;;;8.77;6.20;;;20.40;80.80;;;;;;2240395;55;22053;-75
2021/07/17 01:51:38;;;;;;;10.32;6.57;;;20.40;80.80;;;;;;2450424;55;20969;-75
2021/07/17 01:54:05;;;;;;;10.63;7.20;;;20.50;80.80;;;;;;2271409;56;21058;-74
2021/07/17 01:56:33;;;;;;;11.68;7.65;;;20.40;80.70;;;;;;2280253;55;21092;-75
2021/07/17 01:58:59;;;;;;;13.30;8.48;;;20.40;80.60;;;;;;2239649;56;21881;-76
2021/07/17 02:01:25;;;;;;;16.12;8.00;;;20.40;80.50;;;;;;2244529;55;21827;-75
2021/07/17 02:03:52;;;;;;;13.43;8.77;;;20.40;80.50;;;;;;2247807;55;21033;-75
2021/07/17 02:06:28;;;;;;;13.38;9.18;;;20.50;80.70;;;;;;2238917;56;20922;-75
2021/07/17 02:08:54;;;;;;;13.10;8.48;;;20.50;80.30;;;;;;2297981;56;21101;-75
2021/07/17 02:11:23;;;;;;;11.75;7.70;;;20.50;80.50;;;;;;2237787;56;20926;-76
2021/07/17 02:13:50;;;;;;;13.23;8.80;;;20.50;80.50;;;;;;2313348;55;21876;-74
2021/07/17 02:16:18;;;;;;;12.57;7.95;;;20.50;80.40;;;;;;2241441;56;20990;-75
2021/07/17 02:18:44;;;;;;;14.75;8.02;;;20.50;80.40;;;;;;2240519;55;21028;-75
2021/07/17 02:21:29;;;;;;;11.73;7.85;;;20.50;80.50;;;;;;2447365;55;20911;-76
2021/07/17 02:23:55;;;;;;;17.40;9.73;;;20.50;80.10;;;;;;2282277;56;20978;-75
2021/07/17 02:26:22;;;;;;;13.70;9.52;;;20.50;80.30;;;;;;2241938;56;21047;-75
2021/07/17 02:28:48;;;;;;;14.32;9.10;;;20.50;80.20;;;;;;2278183;56;21544;-75
2021/07/17 02:31:14;;;;;;;13.75;8.45;;;20.50;80.20;;;;;;2231150;55;20963;-75
2021/07/17 02:33:41;;;;;;;13.55;9.10;;;20.50;80.20;;;;;;2244897;56;20962;-75
2021/07/17 02:36:08;;;;;;;13.18;9.27;;;20.50;80.20;;;;;;2246381;55;21079;-75
2021/07/17 02:38:34;;;;;;;12.02;8.00;;;20.50;80.20;;;;;;2245848;55;20950;-75
2021/07/17 02:41:00;;;;;;;12.60;9.13;;;20.50;80.20;;;;;;2240617;55;21077;-75
2021/07/17 02:43:27;;;;;;;11.93;8.32;;;20.40;80.10;;;;;;2236707;56;21387;-74
2021/07/17 02:45:53;;;;;;;14.38;9.25;;;20.40;80.10;;;;;;2386628;56;21038;-75
2021/07/17 02:48:22;;;;;;;13.10;8.88;;;20.40;80.10;;;;;;2392651;55;21438;-77
2021/07/17 02:50:48;;;;;;;13.23;8.68;;;20.40;80.10;;;;;;2236901;56;21002;-75
2021/07/17 02:53:15;;;;;;;13.02;8.10;;;20.40;80.10;;;;;;2237115;56;21066;-74
2021/07/17 02:55:42;;;;;;;12.63;7.82;;;20.40;80.80;;;;;;2240548;56;20951;-74
2021/07/17 02:58:08;;;;;;;13.75;9.10;;;20.40;80.10;;;;;;2237832;56;20994;-75
2021/07/17 03:00:37;;;;;;;12.68;9.13;;;20.40;80.10;;;;;;2227919;56;21038;-74
2021/07/17 03:03:10;;;;;;;14.00;9.93;;;20.40;80.10;;;;;;2240330;56;20945;-75
2021/07/17 03:05:36;;;;;;;14.18;9.98;;;20.40;80.00;;;;;;2238053;55;20990;-75
2021/07/17 03:08:05;;;;;;;14.80;9.15;;;20.40;80.00;;;;;;2237647;56;20961;-75
2021/07/17 03:10:32;;;;;;;14.30;8.77;;;20.40;80.10;;;;;;2331159;56;21003;-76
2021/07/17 03:12:59;;;;;;;15.85;9.55;;;20.40;80.10;;;;;;2454225;55;21004;-75
2021/07/17 03:15:27;;;;;;;17.87;9.27;;;20.40;80.10;;;;;;2237118;56;21446;-75
2021/07/17 03:17:53;;;;;;;14.30;9.55;;;20.40;80.10;;;;;;2243024;56;20994;-75
2021/07/17 03:20:21;;;;;;;16.12;9.93;;;20.40;80.10;;;;;;2240833;55;21105;-76
2021/07/17 03:22:47;;;;;;;14.40;9.27;;;20.40;80.00;;;;;;2293418;55;21018;-75
2021/07/17 03:25:14;;;;;;;12.80;8.90;;;20.40;80.00;;;;;;2245560;55;21022;-75
2021/07/17 03:27:40;;;;;;;17.50;10.40;;;20.40;79.90;;;;;;2238120;56;20993;-75
2021/07/17 03:30:09;;;;;;;15.45;10.02;;;20.30;79.80;;;;;;2237385;56;21022;-77
2021/07/17 03:32:35;;;;;;;15.27;10.15;;;20.30;79.90;;;;;;2240775;56;20991;-74
2021/07/17 03:35:04;;;;;;;15.60;10.60;;;20.30;79.90;;;;;;2241322;55;21034;-74
2021/07/17 03:37:31;;;;;;;14.98;9.10;;;20.30;79.90;;;;;;2273139;55;20982;-74
2021/07/17 03:39:57;;;;;;;15.48;9.07;;;20.30;80.00;;;;;;2243916;55;20997;-72
2021/07/17 03:42:24;;;;;;;15.25;9.88;;;20.30;80.10;;;;;;2237624;56;22032;-76
2021/07/17 03:44:50;;;;;;;15.65;9.77;;;20.30;80.00;;;;;;2237359;56;21007;-74
2021/07/17 03:47:16;;;;;;;15.32;9.88;;;20.30;80.00;;;;;;2248867;55;20962;-76
2021/07/17 03:49:43;;;;;;;13.62;9.02;;;20.30;80.30;;;;;;2234338;56;20946;-74
2021/07/17 03:52:09;;;;;;;16.00;9.98;;;20.30;80.20;;;;;;2257555;55;20960;-75
2021/07/17 03:54:35;;;;;;;15.00;10.00;;;20.30;80.30;;;;;;2243389;56;20975;-77
2021/07/17 03:57:01;;;;;;;14.57;9.25;;;20.30;80.30;;;;;;2230233;56;20974;-73
2021/07/17 03:59:28;;;;;;;12.95;9.35;;;20.30;80.20;;;;;;2298041;55;21018;-74
2021/07/17 04:01:54;;;;;;;13.80;9.43;;;20.30;80.20;;;;;;2245615;55;20934;-75
2021/07/17 04:04:21;;;;;;;14.15;8.80;;;20.30;80.30;;;;;;2364731;56;21957;-75
2021/07/17 04:06:47;;;;;;;15.02;9.25;;;20.30;80.30;;;;;;2344067;55;21010;-75
2021/07/17 04:09:14;;;;;;;15.27;9.68;;;20.40;80.40;;;;;;2236789;55;21003;-74
2021/07/17 04:11:40;;;;;;;15.25;9.40;;;20.40;80.30;;;;;;2235306;56;20950;-75
2021/07/17 04:14:06;;;;;;;12.80;8.55;;;20.40;80.10;;;;;;2284594;56;21015;-75
2021/07/17 04:16:33;;;;;;;13.73;9.77;;;20.40;80.00;;;;;;2398911;55;20987;-75
2021/07/17 04:18:59;;;;;;;13.82;9.30;;;20.40;80.10;;;;;;2241944;56;21122;-75
2021/07/17 04:21:26;;;;;;;12.52;8.55;;;20.30;80.10;;;;;;2247140;55;21053;-74
2021/07/17 04:23:52;;;;;;;12.75;8.70;;;20.40;80.30;;;;;;2236743;56;20918;-74
2021/07/17 04:26:18;;;;;;;12.60;9.43;;;20.40;80.40;;;;;;2286996;55;20998;-74
2021/07/17 04:28:44;;;;;;;13.52;8.52;;;20.40;80.30;;;;;;2397342;55;21644;-77
2021/07/17 04:31:11;;;;;;;13.75;8.52;;;20.40;80.10;;;;;;2267681;56;20982;-75
2021/07/17 04:33:37;;;;;;;11.60;8.45;;;20.40;80.20;;;;;;2238239;56;21048;-76
2021/07/17 04:36:04;;;;;;;13.25;8.50;;;20.40;80.30;;;;;;2230071;56;20926;-75
2021/07/17 04:38:32;;;;;;;13.82;8.65;;;20.40;80.30;;;;;;2235125;56;20977;-74
2021/07/17 04:40:58;;;;;;;16.45;8.75;;;20.40;80.20;;;;;;2245823;55;21087;-77
2021/07/17 04:43:25;;;;;;;15.27;9.23;;;20.40;80.10;;;;;;2359979;55;20954;-75
2021/07/17 04:45:53;;;;;;;14.55;9.48;;;20.40;80.10;;;;;;2424360;55;20995;-75
2021/07/17 04:48:20;;;;;;;14.70;9.75;;;20.40;80.10;;;;;;2399018;55;21046;-75
2021/07/17 04:50:47;;;;;;;14.18;9.73;;;20.40;79.90;;;;;;2238547;56;21290;-75
2021/07/17 04:53:13;;;;;;;13.55;9.15;;;20.40;79.90;;;;;;2235748;56;20934;-73
2021/07/17 04:55:40;;;;;;;13.02;9.50;;;20.40;80.00;;;;;;2242528;56;20997;-75
2021/07/17 04:58:06;;;;;;;15.27;10.45;;;20.40;80.10;;;;;;2238627;56;21109;-75
2021/07/17 05:00:32;;;;;;;13.95;8.57;;;20.40;80.10;;;;;;2238839;56;20942;-74
2021/07/17 05:02:59;;;;;;;12.73;8.88;;;20.40;80.30;;;;;;2411854;55;20986;-75
2021/07/17 05:05:25;;;;;;;14.23;8.85;;;20.40;80.40;;;;;;2239257;55;21030;-74
2021/07/17 05:07:52;;;;;;;16.37;10.43;;;20.40;80.50;;;;;;2239603;56;21446;-75
2021/07/17 05:10:20;;;;;;;15.10;9.40;;;20.40;80.50;;;;;;2285759;55;20962;-75
2021/07/17 05:12:46;;;;;;;16.20;8.88;;;20.40;80.60;;;;;;2238419;56;21029;-75
2021/07/17 05:15:13;;;;;;;13.30;9.25;;;20.40;80.60;;;;;;2240058;56;21046;-75
2021/07/17 05:17:39;;;;;;;16.17;9.35;;;20.40;80.70;;;;;;2242699;56;21010;-74
2021/07/17 05:20:06;;;;;;;15.02;8.45;;;20.40;80.70;;;;;;2243357;56;20990;-75
2021/07/17 05:22:33;;;;;;;14.55;10.00;;;20.40;80.70;;;;;;2238926;56;20998;-74
2021/07/17 05:25:00;;;;;;;12.65;8.82;;;20.50;80.70;;;;;;2241489;56;21034;-76
2021/07/17 05:27:27;;;;;;;12.35;8.25;;;20.50;80.60;;;;;;2356016;56;21022;-75
2021/07/17 05:29:53;;;;;;;13.50;8.90;;;20.50;80.70;;;;;;2252745;55;21046;-74
2021/07/17 05:32:19;;;;;;;13.18;8.23;;;20.50;80.70;;;;;;2238421;56;20958;-77
2021/07/17 05:34:46;;;;;;;13.10;9.15;;;20.50;80.80;;;;;;2237166;56;21031;-76
2021/07/17 05:37:12;;;;;;;13.15;8.27;;;20.50;80.80;;;;;;2455238;55;20970;-74
2021/07/17 05:39:38;;;;;;;14.02;8.15;;;20.60;80.90;;;;;;2248094;55;20982;-74
2021/07/17 05:42:07;;;;;;;12.10;7.93;;;20.50;80.80;;;;;;2250971;55;21086;-77
2021/07/17 05:44:34;;;;;;;12.13;8.38;;;20.60;80.90;;;;;;2239068;56;20938;-76
2021/07/17 05:47:00;;;;;;;13.57;8.32;;;20.60;81.00;;;;;;2238013;56;20998;-75
2021/07/17 05:49:29;;;;;;;13.27;8.60;;;20.60;81.10;;;;;;2414373;55;21006;-75
2021/07/17 05:51:58;;;;;;;13.68;8.45;;;20.70;81.10;;;;;;2236802;56;20978;-77
2021/07/17 05:54:25;;;;;;;14.40;9.07;;;20.70;81.00;;;;;;2238727;56;20966;-78
2021/07/17 05:56:51;;;;;;;15.20;9.07;;;20.70;81.00;;;;;;2238169;56;21674;-74
2021/07/17 05:59:18;;;;;;;15.48;9.15;;;20.70;81.00;;;;;;2238787;56;20987;-74
2021/07/17 06:01:45;;;;;;;17.35;8.95;;;20.70;81.20;;;;;;2244735;56;20990;-75
2021/07/17 06:04:12;;;;;;;12.27;7.97;;;20.80;81.20;;;;;;2239125;55;21005;-75
2021/07/17 06:06:38;;;;;;;14.87;8.48;;;20.80;81.10;;;;;;2276136;56;20995;-77
2021/07/17 06:09:04;;;;;;;15.43;9.68;;;20.80;81.10;;;;;;2239145;56;21022;-74
2021/07/17 06:11:31;;;;;;;14.68;9.20;;;20.80;81.10;;;;;;2237919;56;20959;-73
2021/07/17 06:13:58;;;;;;;11.75;8.90;;;20.80;81.00;;;;;;2366932;55;21083;-76
2021/07/17 06:16:27;;;;;;;14.23;9.55;;;20.90;81.20;;;;;;2237994;56;21186;-74
2021/07/17 06:18:53;;;;;;;15.30;9.40;;;20.90;80.90;;;;;;2243513;56;20953;-74
2021/07/17 06:21:20;;;;;;;13.80;9.50;;;20.90;80.90;;;;;;2281894;55;20961;-76
2021/07/17 06:23:46;;;;;;;17.42;10.52;;;21.00;80.90;;;;;;2305655;55;20966;-74
2021/07/17 06:26:14;;;;;;;13.62;8.98;;;20.90;80.70;;;;;;2245943;55;21006;-74
2021/07/17 06:28:41;;;;;;;14.23;9.75;;;21.00;80.80;;;;;;2456142;55;20971;-75
2021/07/17 06:31:07;;;;;;;13.00;8.55;;;21.00;81.00;;;;;;2299460;56;20926;-75
2021/07/17 06:33:36;;;;;;;14.50;9.55;;;21.00;81.00;;;;;;2246225;56;20981;-75
2021/07/17 06:36:03;;;;;;;12.63;9.43;;;21.10;81.30;;;;;;2327532;55;20950;-74
2021/07/17 06:38:31;;;;;;;14.15;10.05;;;21.10;81.40;;;;;;2241920;56;20942;-75
2021/07/17 06:40:57;;;;;;;14.13;9.80;;;21.10;81.50;;;;;;2455858;55;21010;-76
2021/07/17 06:43:24;;;;;;;16.02;10.40;;;21.20;81.50;;;;;;2286891;55;20938;-76
2021/07/17 06:45:50;;;;;;;15.05;10.48;;;21.20;81.40;;;;;;2260263;56;21003;-75
2021/07/17 06:48:18;;;;;;;15.75;10.30;;;21.30;81.30;;;;;;2461065;55;20985;-75
2021/07/17 06:50:47;;;;;;;15.80;10.27;;;21.30;81.30;;;;;;2455178;55;20930;-74
2021/07/17 06:53:15;;;;;;;14.98;10.15;;;21.30;81.20;;;;;;2243436;56;20942;-75
2021/07/17 06:55:41;;;;;;;16.08;10.73;;;21.30;81.20;;;;;;2221533;55;20990;-77
2021/07/17 06:58:08;;;;;;;14.32;9.27;;;21.30;81.20;;;;;;2288497;56;21065;-75
2021/07/17 07:00:35;;;;;;;14.10;10.07;;;21.40;81.40;;;;;;2242243;56;20934;-74
2021/07/17 07:03:04;;;;;;;14.25;10.10;;;21.40;81.40;;;;;;2237623;56;20962;-75
2021/07/17 07:05:30;;;;;;;14.63;10.38;;;21.50;81.20;;;;;;2257498;56;21019;-76
2021/07/17 07:08:00;;;;;;;15.32;10.07;;;21.50;81.40;;;;;;2245057;55;20961;-75
2021/07/17 07:10:26;;;;;;;16.23;11.55;;;21.50;81.40;;;;;;2251380;56;20971;-74
2021/07/17 07:12:53;;;;;;;17.35;11.88;;;21.50;81.40;;;;;;2347191;56;21570;-75
2021/07/17 07:15:19;;;;;;;17.30;11.90;;;21.60;81.30;;;;;;2240841;56;21051;-75
2021/07/17 07:17:48;;;;;;;15.35;10.77;;;21.60;81.00;;;;;;2236658;55;21024;-75
2021/07/17 07:20:14;;;;;;;16.30;11.30;;;21.60;81.10;;;;;;2234652;56;21541;-76
2021/07/17 07:22:41;;;;;;;15.18;11.02;;;21.70;81.20;;;;;;2237965;56;20939;-75
2021/07/17 07:25:10;;;;;;;17.58;12.35;;;21.70;81.30;;;;;;2239902;55;20958;-75
2021/07/17 07:27:37;;;;;;;14.52;10.77;;;21.80;81.30;;;;;;2233624;56;20938;-75
2021/07/17 07:30:05;;;;;;;16.62;11.48;;;21.80;81.60;;;;;;2234508;56;20918;-76
2021/07/17 07:32:44;;;;;;;15.02;9.88;;;21.80;81.60;;;;;;2264306;56;21465;-74
2021/07/17 07:35:13;;;;;;;17.17;10.70;;;21.90;81.80;;;;;;2403057;55;21872;-74
2021/07/17 07:37:40;;;;;;;15.73;11.23;;;21.90;81.50;;;;;;2251894;56;20967;-73
2021/07/17 07:40:07;;;;;;;15.90;11.35;;;22.00;81.50;;;;;;2239198;56;21014;-74
2021/07/17 07:42:37;;;;;;;19.90;11.52;;;22.00;81.30;;;;;;2255792;55;22175;-75
2021/07/17 07:45:06;;;;;;;16.08;11.50;;;22.10;81.20;;;;;;2237857;56;21607;-74
2021/07/17 07:47:34;;;;;;;16.02;10.98;;;22.10;81.40;;;;;;2295955;55;21335;-73
2021/07/17 07:50:00;;;;;;;14.45;10.35;;;22.20;81.50;;;;;;2235888;55;21961;-74
2021/07/17 07:52:28;;;;;;;16.65;11.68;;;22.20;81.70;;;;;;2244752;55;20983;-74
2021/07/17 07:54:55;;;;;;;15.80;10.75;;;22.20;81.60;;;;;;2371801;55;21887;-74
2021/07/17 07:57:21;;;;;;;15.95;10.80;;;22.30;81.50;;;;;;2404415;55;21822;-74
2021/07/17 07:59:49;;;;;;;15.80;11.10;;;22.30;81.40;;;;;;2238055;56;21067;-73
2021/07/17 08:02:15;;;;;;;17.30;11.60;;;22.40;81.40;;;;;;2237209;56;21534;-74
2021/07/17 08:04:41;;;;;;;15.68;10.90;;;22.40;81.30;;;;;;2240411;56;21549;-75
2021/07/17 08:07:10;;;;;;;14.48;9.52;;;22.40;81.20;;;;;;2431265;55;21041;-74
2021/07/17 08:09:37;;;;;;;14.07;10.40;;;22.50;81.10;;;;;;2248405;55;21034;-74
2021/07/17 08:12:04;;;;;;;15.27;10.25;;;22.50;81.10;;;;;;2245030;55;20986;-76
2021/07/17 08:14:31;;;;;;;15.38;10.43;;;22.50;80.80;;;;;;2238204;55;21130;-74
2021/07/17 08:17:02;;;;;;;14.73;10.38;;;22.60;80.90;;;;;;2237523;56;21621;-74
2021/07/17 08:19:29;;;;;;;15.77;10.63;;;22.60;81.00;;;;;;2357283;55;21098;-73
2021/07/17 08:21:55;;;;;;;14.43;10.63;;;22.70;81.20;;;;;;2295355;55;22148;-74
2021/07/17 08:24:21;;;;;;;12.82;10.07;;;22.70;81.00;;;;;;2230145;56;21843;-71
2021/07/17 08:26:47;;;;;;;15.88;11.27;;;22.70;80.70;;;;;;2244563;56;20975;-71
2021/07/17 08:29:18;;;;;;;12.82;9.73;;;22.70;80.50;;;;;;2234365;55;21444;-74
2021/07/17 08:31:45;;;;;;;13.10;9.57;;;22.80;80.00;;;;;;2453288;55;20962;-73
2021/07/17 08:34:11;;;;;;;13.88;10.75;;;22.80;80.20;;;;;;2214537;56;20990;-72
2021/07/17 08:36:37;;;;;;;15.23;10.65;;;22.80;80.20;;;;;;2238578;56;20983;-74
2021/07/17 08:39:04;;;;;;;15.07;11.50;;;22.80;80.20;;;;;;2243409;56;21004;-75
2021/07/17 08:41:30;;;;;;;14.95;10.93;;;22.80;80.10;;;;;;2256502;55;20961;-71
2021/07/17 08:44:00;;;;;;;14.23;10.75;;;22.80;80.00;;;;;;2233391;56;20951;-74
2021/07/17 08:46:26;;;;;;;16.37;9.70;;;22.90;79.80;;;;;;2239669;56;21493;-73
2021/07/17 08:48:54;;;;;;;13.88;9.80;;;22.90;79.70;;;;;;2229257;55;20978;-74
2021/07/17 08:51:21;;;;;;;14.27;10.20;;;22.90;79.80;;;;;;2297106;56;21097;-71
2021/07/17 08:53:48;;;;;;;15.50;10.98;;;22.90;79.90;;;;;;2237870;56;20942;-72
2021/07/17 08:56:15;;;;;;;14.52;10.25;;;22.90;79.80;;;;;;2246036;55;20997;-72
2021/07/17 08:58:41;;;;;;;14.60;9.95;;;22.90;79.90;;;;;;2240830;55;21006;-75
2021/07/17 09:01:07;;;;;;;14.57;10.88;;;22.90;79.90;;;;;;2455350;55;21493;-73
2021/07/17 09:03:34;;;;;;;14.63;10.20;;;23.00;79.70;;;;;;2238977;56;20930;-74
2021/07/17 09:06:00;;;;;;;14.13;10.93;;;23.00;79.50;;;;;;2241688;55;20974;-73
2021/07/17 09:08:27;;;;;;;13.07;9.93;;;23.00;79.20;;;;;;2240230;55;20946;-73
2021/07/17 09:10:56;;;;;;;13.40;9.60;;;23.00;79.20;;;;;;2259650;55;21477;-73
2021/07/17 09:13:25;;;;;;;11.68;9.70;;;23.00;79.10;;;;;;2238058;56;21114;-73
2021/07/17 09:16:13;;;;;;;13.50;9.02;;;23.00;79.10;;;;;;2286888;55;21445;-72
2021/07/17 09:18:48;;;;;;;14.57;9.73;;;23.00;79.10;;;;;;2235585;55;20970;-74
2021/07/17 09:21:34;;;;;;;12.40;8.93;;;23.00;78.90;;;;;;2238032;56;20958;-73
2021/07/17 09:24:03;;;;;;;13.50;8.73;;;23.00;78.60;;;;;;2236649;55;21134;-73
2021/07/17 09:26:36;;;;;;;13.80;7.72;;;23.00;79.40;;;;;;2450678;55;22007;-74
2021/07/17 09:29:07;;;;;;;12.20;8.75;;;23.00;79.50;;;;;;2231727;56;21194;-75
2021/07/17 09:31:38;;;;;;;13.18;9.35;;;23.00;79.60;;;;;;2238188;55;20963;-72
2021/07/17 09:34:11;;;;;;;11.85;8.63;;;23.00;79.30;;;;;;2215828;56;20946;-71
2021/07/17 09:36:49;;;;;;;11.98;9.25;;;23.10;79.50;;;;;;2238977;56;21010;-71
2021/07/17 09:39:17;;;;;;;11.43;8.25;;;23.10;79.20;;;;;;2236803;56;20993;-72
2021/07/17 09:42:01;;;;;;;14.30;10.07;;;23.10;79.80;;;;;;2237375;55;21088;-73
2021/07/17 09:44:29;;;;;;;12.52;8.50;;;23.10;79.10;;;;;;2236823;56;20986;-74
2021/07/17 09:46:55;;;;;;;12.55;8.68;;;23.20;79.80;;;;;;2237846;56;20990;-72
2021/07/17 09:49:22;;;;;;;11.43;8.93;;;23.20;79.80;;;;;;2237560;56;20942;-70
2021/07/17 09:52:05;;;;;;;11.27;8.95;;;23.20;79.80;;;;;;2240965;56;20974;-71
2021/07/17 09:54:32;;;;;;;10.77;7.28;;;23.20;79.70;;;;;;2353042;55;20983;-75
2021/07/17 09:57:01;;;;;;;10.68;8.60;;;23.30;79.60;;;;;;2400151;55;21018;-70
2021/07/17 09:59:28;;;;;;;11.05;8.13;;;23.30;79.30;;;;;;2239550;56;21528;-72
2021/07/17 10:01:57;;;;;;;11.10;8.82;;;23.40;79.70;;;;;;2327137;55;21809;-72
2021/07/17 10:04:24;;;;;;;13.98;8.98;;;23.40;79.70;;;;;;2306223;56;21112;-74
2021/07/17 10:06:58;;;;;;;11.90;8.63;;;23.40;79.80;;;;;;2242610;55;20985;-73
2021/07/17 10:09:33;;;;;;;12.05;8.13;;;23.40;79.60;;;;;;2275134;56;21030;-74
2021/07/17 10:12:07;;;;;;;11.75;8.85;;;23.50;79.20;;;;;;2277981;56;20971;-71
2021/07/17 10:14:38;;;;;;;11.48;8.90;;;23.50;79.20;;;;;;2238337;55;21462;-74
2021/07/17 10:17:11;;;;;;;13.20;9.68;;;23.50;79.20;;;;;;2240123;56;21545;-76
2021/07/17 10:19:38;;;;;;;12.75;8.20;;;23.60;79.40;;;;;;2234002;56;21405;-71
2021/07/17 10:22:05;;;;;;;11.15;8.55;;;23.60;79.40;;;;;;2310681;56;21031;-72
2021/07/17 10:24:33;;;;;;;11.15;8.57;;;23.60;79.50;;;;;;2220387;56;21087;-75
2021/07/17 10:27:00;;;;;;;10.13;7.95;;;23.60;79.50;;;;;;2237930;56;20970;-74
2021/07/17 10:29:26;;;;;;;9.95;8.52;;;23.70;79.50;;;;;;2236141;56;21038;-75
2021/07/17 10:31:56;;;;;;;11.98;8.57;;;23.70;79.40;;;;;;2260602;55;21733;-75
2021/07/17 10:34:23;;;;;;;14.52;10.35;;;23.70;79.30;;;;;;2253940;55;20993;-73
2021/07/17 10:37:08;;;;;;;12.70;9.48;;;23.70;79.20;;;;;;2310524;56;21034;-74
2021/07/17 10:39:43;;;;;;;13.60;9.02;;;23.80;78.10;;;;;;2236205;56;21054;-75
2021/07/17 10:42:12;;;;;;;10.65;8.55;;;23.80;78.10;;;;;;2237324;56;20982;-78
2021/07/17 10:44:43;;;;;;;13.23;10.23;;;23.80;78.40;;;;;;2235598;56;21015;-75
2021/07/17 10:47:10;;;;;;;12.15;9.15;;;23.80;78.30;;;;;;2238682;56;21022;-75
2021/07/17 10:49:39;;;;;;;12.02;9.57;;;23.80;78.20;;;;;;2256735;55;20946;-72
2021/07/17 10:52:06;;;;;;;10.52;8.05;;;23.80;78.20;;;;;;2275660;56;21437;-74
2021/07/17 10:54:34;;;;;;;14.20;9.40;;;23.80;78.30;;;;;;2239075;56;21709;-71
2021/07/17 10:57:00;;;;;;;12.80;8.88;;;23.80;78.40;;;;;;2240724;56;21440;-73
2021/07/17 10:59:44;;;;;;;12.27;9.27;;;23.80;78.30;;;;;;2240328;56;21076;-74
2021/07/17 11:02:11;;;;;;;13.40;8.98;;;23.80;77.00;;;;;;2237886;56;21018;-73
2021/07/17 11:04:52;;;;;;;11.77;9.02;;;23.80;78.50;;;;;;2341293;55;21044;-74
2021/07/17 11:07:40;;;;;;;12.77;9.38;;;23.80;78.10;;;;;;2263430;56;21641;-75
2021/07/17 11:10:11;;;;;;;13.80;9.50;;;23.80;77.60;;;;;;2238734;56;21598;-75
2021/07/17 11:12:48;;;;;;;11.85;9.27;;;23.80;78.50;;;;;;2245677;56;20995;-75
2021/07/17 11:16:00;;;;;;;12.82;9.57;;;23.90;78.70;;;;;;2235686;56;20974;-75
2021/07/17 11:18:34;;;;;;;12.35;9.40;;;23.90;77.90;;;;;;2243269;56;20970;-73
2021/07/17 11:21:01;;;;;;;14.48;10.55;;;24.00;79.10;;;;;;2455384;55;21497;-73
2021/07/17 11:23:47;;;;;;;13.45;10.73;;;24.00;79.50;;;;;;2243604;55;21018;-72
2021/07/17 11:26:19;;;;;;;14.55;10.85;;;24.10;78.80;;;;;;2234979;56;21049;-71
2021/07/17 11:28:55;;;;;;;14.52;10.85;;;24.10;79.20;;;;;;2240690;56;21047;-72
2021/07/17 11:31:54;;;;;;;13.13;10.23;;;24.10;78.50;;;;;;2338134;55;21053;-69
2021/07/17 11:34:45;;;;;;;12.90;10.52;;;24.20;77.80;;;;;;2242760;56;20978;-73
2021/07/17 11:37:12;;;;;;;14.98;11.52;;;24.20;77.90;;;;;;2236139;56;21002;-71
2021/07/17 11:39:44;;;;;;;15.30;11.40;;;24.20;79.10;;;;;;2222723;56;20990;-72
2021/07/17 11:42:11;;;;;;;17.98;12.05;;;24.30;79.80;;;;;;2239948;56;20966;-70
2021/07/17 11:44:39;;;;;;;16.17;11.90;;;24.30;79.00;;;;;;2237323;56;21002;-74
2021/07/17 11:47:19;;;;;;;12.98;11.23;;;24.40;79.00;;;;;;2235319;56;20994;-73
2021/07/17 11:49:52;;;;;;;17.67;12.02;;;24.40;78.90;;;;;;2238921;56;21017;-71
2021/07/17 11:52:25;;;;;;;14.65;11.73;;;24.40;79.60;;;;;;2220855;56;21025;-73
2021/07/17 11:54:54;;;;;;;14.50;11.25;;;24.50;79.40;;;;;;2235062;56;20990;-72
2021/07/17 11:57:24;;;;;;;15.23;12.00;;;24.60;79.70;;;;;;2236697;56;21062;-72
2021/07/17 12:00:15;;;;;;;13.38;11.02;;;24.70;79.00;;;;;;2234248;56;21455;-71
2021/07/17 12:02:57;;;;;;;14.18;10.43;;;24.80;78.20;;;;;;2237246;56;21094;-72
2021/07/17 12:05:24;;;;;;;16.33;11.45;;;24.80;79.50;;;;;;2236762;56;20950;-72
2021/07/17 12:07:50;;;;;;;14.35;10.50;;;24.90;79.30;;;;;;2238520;56;21022;-72
2021/07/17 12:10:18;;;;;;;13.57;10.48;;;24.90;79.10;;;;;;2247815;56;21537;-73
2021/07/17 12:12:46;;;;;;;13.60;9.70;;;25.00;79.10;;;;;;2340719;55;21304;-76
2021/07/17 12:15:30;;;;;;;12.15;9.93;;;25.00;78.90;;;;;;2239918;55;21043;-69
2021/07/17 12:17:58;;;;;;;13.60;9.05;;;25.10;78.00;;;;;;2226113;56;21914;-72
2021/07/17 12:20:38;;;;;;;11.77;9.00;;;25.10;79.10;;;;;;2253770;56;21854;-72
2021/07/17 12:25:46;;;;;;;13.43;9.45;;;25.20;77.50;;;;;;2222539;57;21026;-74
2021/07/17 12:28:25;;;;;;;10.38;8.35;;;25.20;76.90;;;;;;2236862;56;21085;-75
2021/07/17 12:30:53;;;;;;;10.63;8.70;;;25.20;76.90;;;;;;2240158;56;20998;-70
2021/07/17 12:33:52;;;;;;;12.02;8.50;;;25.20;77.30;;;;;;2316117;56;21041;-71
2021/07/17 12:36:22;;;;;;;12.27;8.57;;;25.20;76.10;;;;;;2236165;56;20981;-73
2021/07/17 12:38:55;;;;;;;11.32;8.65;;;25.20;76.40;;;;;;2236790;56;21474;-71
2021/07/17 12:41:28;;;;;;;10.57;8.15;;;25.20;76.20;;;;;;2238093;56;21396;-72
2021/07/17 12:44:09;;;;;;;10.02;7.78;;;25.20;76.20;;;;;;2240242;56;21506;-70
2021/07/17 12:46:37;;;;;;;11.23;8.45;;;25.10;76.00;;;;;;2312769;56;21282;-71